sensor_id;sensor_type;location;lat;lon;timestamp;P1;durP1;ratioP1;P2;durP2;ratioP2
26303;SDS011;70693;48.680;8.890;2023-11-21T00:00:09;2.65;;;0.77;;
26303;SDS011;70693;48.680;8.890;2023-11-21T00:02:37;1.85;;;0.85;;
26303;SDS011;70693;48.680;8.890;2023-11-21T00:05:05;1.73;;;1.00;;
26303;SDS011;70693;48.680;8.890;2023-11-21T00:07:34;1.90;;;1.02;;
26303;SDS011;70693;48.680;8.890;2023-11-21T00:10:01;1.35;;;0.70;;
26303;SDS011;70693;48.680;8.890;2023-11-21T00:12:27;1.70;;;0.90;;
26303;SDS011;70693;48.680;8.890;2023-11-21T00:14:54;1.33;;;1.00;;
26303;SDS011;70693;48.680;8.890;2023-11-21T00:17:20;1.85;;;0.80;;
26303;SDS011;70693;48.680;8.890;2023-11-21T00:19:45;1.58;;;0.70;;
26303;SDS011;70693;48.680;8.890;2023-11-21T00:22:11;1.88;;;0.93;;
26303;SDS011;70693;48.680;8.890;2023-11-21T00:24:36;1.30;;;0.77;;
26303;SDS011;70693;48.680;8.890;2023-11-21T00:27:02;2.05;;;0.80;;
26303;SDS011;70693;48.680;8.890;2023-11-21T00:29:28;2.63;;;0.70;;
26303;SDS011;70693;48.680;8.890;2023-11-21T00:31:54;1.50;;;0.80;;
26303;SDS011;70693;48.680;8.890;2023-11-21T00:34:20;1.60;;;0.80;;
26303;SDS011;70693;48.680;8.890;2023-11-21T00:36:46;2.15;;;0.88;;
26303;SDS011;70693;48.680;8.890;2023-11-21T00:39:11;2.20;;;0.80;;
26303;SDS011;70693;48.680;8.890;2023-11-21T00:41:37;1.67;;;0.88;;
26303;SDS011;70693;48.680;8.890;2023-11-21T00:44:03;2.47;;;0.95;;
26303;SDS011;70693;48.680;8.890;2023-11-21T00:46:28;2.55;;;0.82;;
26303;SDS011;70693;48.680;8.890;2023-11-21T00:48:54;1.60;;;0.90;;
26303;SDS011;70693;48.680;8.890;2023-11-21T00:51:21;1.58;;;0.60;;
26303;SDS011;70693;48.680;8.890;2023-11-21T00:53:47;2.72;;;1.00;;
26303;SDS011;70693;48.680;8.890;2023-11-21T00:56:13;1.67;;;0.80;;
26303;SDS011;70693;48.680;8.890;2023-11-21T00:58:40;1.42;;;0.80;;
26303;SDS011;70693;48.680;8.890;2023-11-21T01:01:11;2.03;;;0.70;;
26303;SDS011;70693;48.680;8.890;2023-11-21T01:03:37;1.55;;;0.70;;
26303;SDS011;70693;48.680;8.890;2023-11-21T01:06:03;1.85;;;0.90;;
26303;SDS011;70693;48.680;8.890;2023-11-21T01:08:32;1.35;;;0.80;;
26303;SDS011;70693;48.680;8.890;2023-11-21T01:10:58;1.95;;;0.98;;
26303;SDS011;70693;48.680;8.890;2023-11-21T01:13:24;1.20;;;0.60;;
26303;SDS011;70693;48.680;8.890;2023-11-21T01:15:53;1.10;;;0.57;;
26303;SDS011;70693;48.680;8.890;2023-11-21T01:18:19;1.42;;;0.88;;
26303;SDS011;70693;48.680;8.890;2023-11-21T01:20:45;1.40;;;0.77;;
26303;SDS011;70693;48.680;8.890;2023-11-21T01:23:12;1.52;;;0.57;;
26303;SDS011;70693;48.680;8.890;2023-11-21T01:25:38;1.80;;;0.68;;
26303;SDS011;70693;48.680;8.890;2023-11-21T01:28:03;1.60;;;0.80;;
26303;SDS011;70693;48.680;8.890;2023-11-21T01:30:29;1.20;;;0.60;;
26303;SDS011;70693;48.680;8.890;2023-11-21T01:32:55;1.25;;;0.80;;
26303;SDS011;70693;48.680;8.890;2023-11-21T01:35:21;1.67;;;0.63;;
26303;SDS011;70693;48.680;8.890;2023-11-21T01:37:47;1.50;;;0.60;;
26303;SDS011;70693;48.680;8.890;2023-11-21T01:40:13;1.92;;;0.90;;
26303;SDS011;70693;48.680;8.890;2023-11-21T01:42:39;1.70;;;0.70;;
26303;SDS011;70693;48.680;8.890;2023-11-21T01:45:05;1.75;;;0.80;;
26303;SDS011;70693;48.680;8.890;2023-11-21T01:47:33;2.10;;;0.90;;
26303;SDS011;70693;48.680;8.890;2023-11-21T01:50:00;1.25;;;0.68;;
26303;SDS011;70693;48.680;8.890;2023-11-21T01:52:29;1.38;;;0.55;;
26303;SDS011;70693;48.680;8.890;2023-11-21T01:54:55;0.90;;;0.70;;
26303;SDS011;70693;48.680;8.890;2023-11-21T01:57:23;1.05;;;0.65;;
26303;SDS011;70693;48.680;8.890;2023-11-21T01:59:49;1.10;;;0.55;;
26303;SDS011;70693;48.680;8.890;2023-11-21T02:02:19;1.73;;;0.80;;
26303;SDS011;70693;48.680;8.890;2023-11-21T02:04:45;0.93;;;0.45;;
26303;SDS011;70693;48.680;8.890;2023-11-21T02:07:11;1.73;;;0.70;;
26303;SDS011;70693;48.680;8.890;2023-11-21T02:09:36;3.05;;;0.73;;
26303;SDS011;70693;48.680;8.890;2023-11-21T02:12:07;1.42;;;0.47;;
26303;SDS011;70693;48.680;8.890;2023-11-21T02:14:35;0.77;;;0.40;;
26303;SDS011;70693;48.680;8.890;2023-11-21T02:17:01;1.15;;;0.57;;
26303;SDS011;70693;48.680;8.890;2023-11-21T02:19:28;2.13;;;0.80;;
26303;SDS011;70693;48.680;8.890;2023-11-21T02:21:56;1.05;;;0.55;;
26303;SDS011;70693;48.680;8.890;2023-11-21T02:24:31;1.48;;;0.60;;
26303;SDS011;70693;48.680;8.890;2023-11-21T02:26:57;1.02;;;0.50;;
26303;SDS011;70693;48.680;8.890;2023-11-21T02:29:23;1.20;;;0.70;;
26303;SDS011;70693;48.680;8.890;2023-11-21T02:31:53;2.60;;;0.80;;
26303;SDS011;70693;48.680;8.890;2023-11-21T02:34:20;1.58;;;0.60;;
26303;SDS011;70693;48.680;8.890;2023-11-21T02:36:46;1.95;;;0.70;;
26303;SDS011;70693;48.680;8.890;2023-11-21T02:39:14;1.02;;;0.60;;
26303;SDS011;70693;48.680;8.890;2023-11-21T02:41:40;2.10;;;0.80;;
26303;SDS011;70693;48.680;8.890;2023-11-21T02:44:06;1.00;;;0.50;;
26303;SDS011;70693;48.680;8.890;2023-11-21T02:46:35;1.42;;;0.63;;
26303;SDS011;70693;48.680;8.890;2023-11-21T02:49:02;1.85;;;0.65;;
26303;SDS011;70693;48.680;8.890;2023-11-21T02:51:29;1.25;;;0.60;;
26303;SDS011;70693;48.680;8.890;2023-11-21T02:53:55;1.23;;;0.60;;
26303;SDS011;70693;48.680;8.890;2023-11-21T02:56:25;2.78;;;0.70;;
26303;SDS011;70693;48.680;8.890;2023-11-21T02:58:55;1.67;;;0.70;;
26303;SDS011;70693;48.680;8.890;2023-11-21T03:01:21;1.35;;;0.60;;
26303;SDS011;70693;48.680;8.890;2023-11-21T03:03:48;1.63;;;0.70;;
26303;SDS011;70693;48.680;8.890;2023-11-21T03:06:16;2.03;;;0.80;;
26303;SDS011;70693;48.680;8.890;2023-11-21T03:08:42;0.80;;;0.50;;
26303;SDS011;70693;48.680;8.890;2023-11-21T03:11:08;2.20;;;0.70;;
26303;SDS011;70693;48.680;8.890;2023-11-21T03:13:34;1.70;;;0.80;;
26303;SDS011;70693;48.680;8.890;2023-11-21T03:15:59;1.95;;;0.85;;
26303;SDS011;70693;48.680;8.890;2023-11-21T03:18:25;1.63;;;0.50;;
26303;SDS011;70693;48.680;8.890;2023-11-21T03:20:52;1.35;;;0.60;;
26303;SDS011;70693;48.680;8.890;2023-11-21T03:23:18;1.02;;;0.60;;
26303;SDS011;70693;48.680;8.890;2023-11-21T03:25:44;0.73;;;0.43;;
26303;SDS011;70693;48.680;8.890;2023-11-21T03:28:09;2.88;;;0.60;;
26303;SDS011;70693;48.680;8.890;2023-11-21T03:30:35;1.10;;;0.40;;
26303;SDS011;70693;48.680;8.890;2023-11-21T03:33:01;1.35;;;0.50;;
26303;SDS011;70693;48.680;8.890;2023-11-21T03:35:26;0.82;;;0.50;;
26303;SDS011;70693;48.680;8.890;2023-11-21T03:37:53;1.45;;;0.70;;
26303;SDS011;70693;48.680;8.890;2023-11-21T03:40:18;1.08;;;0.57;;
26303;SDS011;70693;48.680;8.890;2023-11-21T03:42:46;1.13;;;0.50;;
26303;SDS011;70693;48.680;8.890;2023-11-21T03:45:12;0.65;;;0.40;;
26303;SDS011;70693;48.680;8.890;2023-11-21T03:47:39;0.93;;;0.55;;
26303;SDS011;70693;48.680;8.890;2023-11-21T03:50:08;0.60;;;0.40;;
26303;SDS011;70693;48.680;8.890;2023-11-21T03:52:34;1.38;;;0.50;;
26303;SDS011;70693;48.680;8.890;2023-11-21T03:55:00;1.45;;;0.40;;
26303;SDS011;70693;48.680;8.890;2023-11-21T03:57:26;1.90;;;0.52;;
26303;SDS011;70693;48.680;8.890;2023-11-21T03:59:55;1.15;;;0.50;;
26303;SDS011;70693;48.680;8.890;2023-11-21T04:02:20;0.95;;;0.50;;
26303;SDS011;70693;48.680;8.890;2023-11-21T04:04:46;0.88;;;0.22;;
26303;SDS011;70693;48.680;8.890;2023-11-21T04:07:12;1.15;;;0.50;;
26303;SDS011;70693;48.680;8.890;2023-11-21T04:09:38;0.60;;;0.40;;
26303;SDS011;70693;48.680;8.890;2023-11-21T04:12:04;1.80;;;0.50;;
26303;SDS011;70693;48.680;8.890;2023-11-21T04:14:30;1.08;;;0.60;;
26303;SDS011;70693;48.680;8.890;2023-11-21T04:16:57;0.77;;;0.40;;
26303;SDS011;70693;48.680;8.890;2023-11-21T04:19:23;0.98;;;0.50;;
26303;SDS011;70693;48.680;8.890;2023-11-21T04:21:48;0.85;;;0.40;;
26303;SDS011;70693;48.680;8.890;2023-11-21T04:24:14;1.17;;;0.60;;
26303;SDS011;70693;48.680;8.890;2023-11-21T04:26:40;1.00;;;0.40;;
26303;SDS011;70693;48.680;8.890;2023-11-21T04:29:06;1.13;;;0.50;;
26303;SDS011;70693;48.680;8.890;2023-11-21T04:31:32;0.95;;;0.40;;
26303;SDS011;70693;48.680;8.890;2023-11-21T04:33:58;1.58;;;0.60;;
26303;SDS011;70693;48.680;8.890;2023-11-21T04:36:23;0.60;;;0.30;;
26303;SDS011;70693;48.680;8.890;2023-11-21T04:38:49;0.80;;;0.40;;
26303;SDS011;70693;48.680;8.890;2023-11-21T04:41:14;0.85;;;0.30;;
26303;SDS011;70693;48.680;8.890;2023-11-21T04:43:40;1.25;;;0.50;;
26303;SDS011;70693;48.680;8.890;2023-11-21T04:46:07;1.05;;;0.30;;
26303;SDS011;70693;48.680;8.890;2023-11-21T04:48:34;0.80;;;0.40;;
26303;SDS011;70693;48.680;8.890;2023-11-21T04:51:00;1.95;;;0.30;;
26303;SDS011;70693;48.680;8.890;2023-11-21T04:53:25;0.55;;;0.40;;
26303;SDS011;70693;48.680;8.890;2023-11-21T04:55:51;0.32;;;0.22;;
26303;SDS011;70693;48.680;8.890;2023-11-21T04:58:17;0.50;;;0.38;;
26303;SDS011;70693;48.680;8.890;2023-11-21T05:00:42;1.63;;;0.40;;
26303;SDS011;70693;48.680;8.890;2023-11-21T05:03:09;1.02;;;0.50;;
26303;SDS011;70693;48.680;8.890;2023-11-21T05:05:34;0.90;;;0.52;;
26303;SDS011;70693;48.680;8.890;2023-11-21T05:08:00;0.57;;;0.30;;
26303;SDS011;70693;48.680;8.890;2023-11-21T05:10:26;0.88;;;0.40;;
26303;SDS011;70693;48.680;8.890;2023-11-21T05:12:52;0.52;;;0.38;;
26303;SDS011;70693;48.680;8.890;2023-11-21T05:15:18;0.63;;;0.50;;
26303;SDS011;70693;48.680;8.890;2023-11-21T05:17:44;1.15;;;0.60;;
26303;SDS011;70693;48.680;8.890;2023-11-21T05:20:11;0.90;;;0.40;;
26303;SDS011;70693;48.680;8.890;2023-11-21T05:22:38;1.75;;;0.50;;
26303;SDS011;70693;48.680;8.890;2023-11-21T05:25:04;0.82;;;0.47;;
26303;SDS011;70693;48.680;8.890;2023-11-21T05:27:32;0.60;;;0.30;;
26303;SDS011;70693;48.680;8.890;2023-11-21T05:29:58;1.27;;;0.30;;
26303;SDS011;70693;48.680;8.890;2023-11-21T05:32:24;0.90;;;0.50;;
26303;SDS011;70693;48.680;8.890;2023-11-21T05:34:50;0.98;;;0.55;;
26303;SDS011;70693;48.680;8.890;2023-11-21T05:37:16;0.70;;;0.50;;
26303;SDS011;70693;48.680;8.890;2023-11-21T05:39:42;1.00;;;0.50;;
26303;SDS011;70693;48.680;8.890;2023-11-21T05:42:08;1.50;;;0.60;;
26303;SDS011;70693;48.680;8.890;2023-11-21T05:44:35;0.70;;;0.45;;
26303;SDS011;70693;48.680;8.890;2023-11-21T05:47:02;0.90;;;0.32;;
26303;SDS011;70693;48.680;8.890;2023-11-21T05:49:28;0.73;;;0.40;;
26303;SDS011;70693;48.680;8.890;2023-11-21T05:51:56;1.40;;;0.43;;
26303;SDS011;70693;48.680;8.890;2023-11-21T05:54:22;1.02;;;0.40;;
26303;SDS011;70693;48.680;8.890;2023-11-21T05:56:48;0.40;;;0.25;;
26303;SDS011;70693;48.680;8.890;2023-11-21T05:59:14;0.75;;;0.40;;
26303;SDS011;70693;48.680;8.890;2023-11-21T06:01:40;0.80;;;0.40;;
26303;SDS011;70693;48.680;8.890;2023-11-21T06:04:05;0.75;;;0.28;;
26303;SDS011;70693;48.680;8.890;2023-11-21T06:06:35;0.80;;;0.30;;
26303;SDS011;70693;48.680;8.890;2023-11-21T06:09:01;0.47;;;0.30;;
26303;SDS011;70693;48.680;8.890;2023-11-21T06:11:27;0.80;;;0.60;;
26303;SDS011;70693;48.680;8.890;2023-11-21T06:13:53;0.85;;;0.43;;
26303;SDS011;70693;48.680;8.890;2023-11-21T06:16:18;0.82;;;0.40;;
26303;SDS011;70693;48.680;8.890;2023-11-21T06:18:47;0.80;;;0.47;;
26303;SDS011;70693;48.680;8.890;2023-11-21T06:21:12;0.70;;;0.40;;
26303;SDS011;70693;48.680;8.890;2023-11-21T06:23:38;0.80;;;0.50;;
26303;SDS011;70693;48.680;8.890;2023-11-21T06:26:06;0.50;;;0.30;;
26303;SDS011;70693;48.680;8.890;2023-11-21T06:28:31;0.60;;;0.30;;
26303;SDS011;70693;48.680;8.890;2023-11-21T06:30:57;0.70;;;0.30;;
26303;SDS011;70693;48.680;8.890;2023-11-21T06:33:23;0.50;;;0.30;;
26303;SDS011;70693;48.680;8.890;2023-11-21T06:35:52;0.43;;;0.30;;
26303;SDS011;70693;48.680;8.890;2023-11-21T06:38:18;0.50;;;0.35;;
26303;SDS011;70693;48.680;8.890;2023-11-21T06:40:44;0.60;;;0.30;;
26303;SDS011;70693;48.680;8.890;2023-11-21T06:43:10;0.88;;;0.50;;
26303;SDS011;70693;48.680;8.890;2023-11-21T06:45:36;0.68;;;0.40;;
26303;SDS011;70693;48.680;8.890;2023-11-21T06:48:02;1.15;;;0.50;;
26303;SDS011;70693;48.680;8.890;2023-11-21T06:50:27;0.90;;;0.30;;
26303;SDS011;70693;48.680;8.890;2023-11-21T06:52:53;1.38;;;0.50;;
26303;SDS011;70693;48.680;8.890;2023-11-21T06:55:18;1.33;;;0.63;;
26303;SDS011;70693;48.680;8.890;2023-11-21T06:57:44;1.08;;;0.50;;
26303;SDS011;70693;48.680;8.890;2023-11-21T07:00:10;1.13;;;0.52;;
26303;SDS011;70693;48.680;8.890;2023-11-21T07:02:36;0.80;;;0.40;;
26303;SDS011;70693;48.680;8.890;2023-11-21T07:05:02;0.63;;;0.40;;
26303;SDS011;70693;48.680;8.890;2023-11-21T07:07:28;1.80;;;0.60;;
26303;SDS011;70693;48.680;8.890;2023-11-21T07:09:54;0.80;;;0.40;;
26303;SDS011;70693;48.680;8.890;2023-11-21T07:12:19;1.20;;;0.50;;
26303;SDS011;70693;48.680;8.890;2023-11-21T07:14:48;0.32;;;0.30;;
26303;SDS011;70693;48.680;8.890;2023-11-21T07:17:14;0.82;;;0.38;;
26303;SDS011;70693;48.680;8.890;2023-11-21T07:19:40;0.57;;;0.40;;
26303;SDS011;70693;48.680;8.890;2023-11-21T07:22:06;0.52;;;0.40;;
26303;SDS011;70693;48.680;8.890;2023-11-21T07:24:33;0.52;;;0.32;;
26303;SDS011;70693;48.680;8.890;2023-11-21T07:26:59;1.02;;;0.47;;
26303;SDS011;70693;48.680;8.890;2023-11-21T07:29:25;0.50;;;0.40;;
26303;SDS011;70693;48.680;8.890;2023-11-21T07:31:52;0.50;;;0.40;;
26303;SDS011;70693;48.680;8.890;2023-11-21T07:34:19;0.55;;;0.30;;
26303;SDS011;70693;48.680;8.890;2023-11-21T07:36:46;0.70;;;0.40;;
26303;SDS011;70693;48.680;8.890;2023-11-21T07:39:12;0.65;;;0.38;;
26303;SDS011;70693;48.680;8.890;2023-11-21T07:41:37;0.93;;;0.30;;
26303;SDS011;70693;48.680;8.890;2023-11-21T07:44:09;0.40;;;0.30;;
26303;SDS011;70693;48.680;8.890;2023-11-21T07:46:36;0.60;;;0.30;;
26303;SDS011;70693;48.680;8.890;2023-11-21T07:49:02;0.52;;;0.30;;
26303;SDS011;70693;48.680;8.890;2023-11-21T07:51:29;0.38;;;0.30;;
26303;SDS011;70693;48.680;8.890;2023-11-21T07:53:54;0.80;;;0.40;;
26303;SDS011;70693;48.680;8.890;2023-11-21T07:56:20;1.15;;;0.50;;
26303;SDS011;70693;48.680;8.890;2023-11-21T07:58:45;0.88;;;0.50;;
26303;SDS011;70693;48.680;8.890;2023-11-21T08:01:11;0.80;;;0.50;;
26303;SDS011;70693;48.680;8.890;2023-11-21T08:03:37;0.60;;;0.40;;
26303;SDS011;70693;48.680;8.890;2023-11-21T08:06:02;1.75;;;0.52;;
26303;SDS011;70693;48.680;8.890;2023-11-21T08:08:30;0.73;;;0.55;;
26303;SDS011;70693;48.680;8.890;2023-11-21T08:10:57;0.60;;;0.40;;
26303;SDS011;70693;48.680;8.890;2023-11-21T08:13:23;1.13;;;0.50;;
26303;SDS011;70693;48.680;8.890;2023-11-21T08:15:49;0.75;;;0.35;;
26303;SDS011;70693;48.680;8.890;2023-11-21T08:18:14;0.85;;;0.47;;
26303;SDS011;70693;48.680;8.890;2023-11-21T08:20:42;0.73;;;0.47;;
26303;SDS011;70693;48.680;8.890;2023-11-21T08:23:08;0.88;;;0.40;;
26303;SDS011;70693;48.680;8.890;2023-11-21T08:25:33;0.70;;;0.47;;
26303;SDS011;70693;48.680;8.890;2023-11-21T08:27:59;0.73;;;0.47;;
26303;SDS011;70693;48.680;8.890;2023-11-21T08:30:26;0.57;;;0.30;;
26303;SDS011;70693;48.680;8.890;2023-11-21T08:32:54;3.13;;;0.68;;
26303;SDS011;70693;48.680;8.890;2023-11-21T08:35:23;1.52;;;0.60;;
26303;SDS011;70693;48.680;8.890;2023-11-21T08:37:52;1.58;;;0.50;;
26303;SDS011;70693;48.680;8.890;2023-11-21T08:40:18;0.88;;;0.40;;
26303;SDS011;70693;48.680;8.890;2023-11-21T08:42:45;0.82;;;0.43;;
26303;SDS011;70693;48.680;8.890;2023-11-21T08:45:11;0.60;;;0.40;;
26303;SDS011;70693;48.680;8.890;2023-11-21T08:47:38;0.75;;;0.40;;
26303;SDS011;70693;48.680;8.890;2023-11-21T08:50:04;0.82;;;0.43;;
26303;SDS011;70693;48.680;8.890;2023-11-21T08:52:33;0.93;;;0.52;;
26303;SDS011;70693;48.680;8.890;2023-11-21T08:54:59;0.90;;;0.50;;
26303;SDS011;70693;48.680;8.890;2023-11-21T08:57:28;1.10;;;0.50;;
26303;SDS011;70693;48.680;8.890;2023-11-21T08:59:54;0.52;;;0.45;;
26303;SDS011;70693;48.680;8.890;2023-11-21T09:02:22;0.40;;;0.30;;
26303;SDS011;70693;48.680;8.890;2023-11-21T09:04:48;0.98;;;0.50;;
26303;SDS011;70693;48.680;8.890;2023-11-21T09:07:15;0.85;;;0.43;;
26303;SDS011;70693;48.680;8.890;2023-11-21T09:09:41;0.73;;;0.47;;
26303;SDS011;70693;48.680;8.890;2023-11-21T09:12:07;0.80;;;0.52;;
26303;SDS011;70693;48.680;8.890;2023-11-21T09:14:32;0.70;;;0.40;;
26303;SDS011;70693;48.680;8.890;2023-11-21T09:16:58;0.43;;;0.40;;
26303;SDS011;70693;48.680;8.890;2023-11-21T09:19:24;0.43;;;0.40;;
26303;SDS011;70693;48.680;8.890;2023-11-21T09:21:50;1.10;;;0.40;;
26303;SDS011;70693;48.680;8.890;2023-11-21T09:24:16;0.40;;;0.32;;
26303;SDS011;70693;48.680;8.890;2023-11-21T09:26:41;2.05;;;0.30;;
26303;SDS011;70693;48.680;8.890;2023-11-21T09:29:07;1.00;;;0.50;;
26303;SDS011;70693;48.680;8.890;2023-11-21T09:31:33;0.70;;;0.55;;
26303;SDS011;70693;48.680;8.890;2023-11-21T09:33:59;0.45;;;0.43;;
26303;SDS011;70693;48.680;8.890;2023-11-21T09:36:24;0.45;;;0.30;;
26303;SDS011;70693;48.680;8.890;2023-11-21T09:38:52;1.10;;;0.40;;
26303;SDS011;70693;48.680;8.890;2023-11-21T09:41:26;0.70;;;0.30;;
26303;SDS011;70693;48.680;8.890;2023-11-21T09:44:04;0.52;;;0.38;;
26303;SDS011;70693;48.680;8.890;2023-11-21T09:46:36;0.75;;;0.40;;
26303;SDS011;70693;48.680;8.890;2023-11-21T09:49:04;0.45;;;0.40;;
26303;SDS011;70693;48.680;8.890;2023-11-21T09:51:36;0.55;;;0.30;;
26303;SDS011;70693;48.680;8.890;2023-11-21T09:54:08;0.60;;;0.47;;
26303;SDS011;70693;48.680;8.890;2023-11-21T09:56:35;0.85;;;0.50;;
26303;SDS011;70693;48.680;8.890;2023-11-21T09:59:02;1.00;;;0.40;;
26303;SDS011;70693;48.680;8.890;2023-11-21T10:01:34;0.47;;;0.30;;
26303;SDS011;70693;48.680;8.890;2023-11-21T10:04:02;0.47;;;0.30;;
26303;SDS011;70693;48.680;8.890;2023-11-21T10:06:28;0.52;;;0.40;;
26303;SDS011;70693;48.680;8.890;2023-11-21T10:08:55;0.40;;;0.40;;
26303;SDS011;70693;48.680;8.890;2023-11-21T10:11:23;0.55;;;0.30;;
26303;SDS011;70693;48.680;8.890;2023-11-21T10:13:54;0.75;;;0.40;;
26303;SDS011;70693;48.680;8.890;2023-11-21T10:16:22;0.50;;;0.30;;
26303;SDS011;70693;48.680;8.890;2023-11-21T10:18:51;0.80;;;0.50;;
26303;SDS011;70693;48.680;8.890;2023-11-21T10:21:20;0.60;;;0.40;;
26303;SDS011;70693;48.680;8.890;2023-11-21T10:23:46;0.70;;;0.47;;
26303;SDS011;70693;48.680;8.890;2023-11-21T10:26:13;1.05;;;0.50;;
26303;SDS011;70693;48.680;8.890;2023-11-21T10:29:02;2.05;;;0.40;;
26303;SDS011;70693;48.680;8.890;2023-11-21T10:31:30;1.15;;;0.50;;
26303;SDS011;70693;48.680;8.890;2023-11-21T10:34:11;0.57;;;0.40;;
26303;SDS011;70693;48.680;8.890;2023-11-21T10:36:37;0.93;;;0.60;;
26303;SDS011;70693;48.680;8.890;2023-11-21T10:39:02;0.90;;;0.50;;
26303;SDS011;70693;48.680;8.890;2023-11-21T10:41:28;0.98;;;0.60;;
26303;SDS011;70693;48.680;8.890;2023-11-21T10:43:54;0.70;;;0.55;;
26303;SDS011;70693;48.680;8.890;2023-11-21T10:46:21;0.63;;;0.40;;
26303;SDS011;70693;48.680;8.890;2023-11-21T10:48:52;0.52;;;0.43;;
26303;SDS011;70693;48.680;8.890;2023-11-21T10:51:21;0.80;;;0.50;;
26303;SDS011;70693;48.680;8.890;2023-11-21T10:53:49;0.82;;;0.52;;
26303;SDS011;70693;48.680;8.890;2023-11-21T10:56:16;0.90;;;0.60;;
26303;SDS011;70693;48.680;8.890;2023-11-21T10:58:45;0.80;;;0.50;;
26303;SDS011;70693;48.680;8.890;2023-11-21T11:01:11;0.63;;;0.40;;
26303;SDS011;70693;48.680;8.890;2023-11-21T11:03:39;0.60;;;0.43;;
26303;SDS011;70693;48.680;8.890;2023-11-21T11:06:06;0.43;;;0.40;;
26303;SDS011;70693;48.680;8.890;2023-11-21T11:08:39;1.00;;;0.55;;
26303;SDS011;70693;48.680;8.890;2023-11-21T11:11:05;0.57;;;0.47;;
26303;SDS011;70693;48.680;8.890;2023-11-21T11:13:32;0.45;;;0.43;;
26303;SDS011;70693;48.680;8.890;2023-11-21T11:15:58;0.80;;;0.60;;
26303;SDS011;70693;48.680;8.890;2023-11-21T11:18:26;0.85;;;0.57;;
26303;SDS011;70693;48.680;8.890;2023-11-21T11:20:58;0.82;;;0.55;;
26303;SDS011;70693;48.680;8.890;2023-11-21T11:23:58;0.60;;;0.40;;
26303;SDS011;70693;48.680;8.890;2023-11-21T11:26:38;0.93;;;0.68;;
26303;SDS011;70693;48.680;8.890;2023-11-21T11:29:23;2.40;;;2.10;;
26303;SDS011;70693;48.680;8.890;2023-11-21T11:32:06;2.10;;;1.88;;
26303;SDS011;70693;48.680;8.890;2023-11-21T11:34:52;2.53;;;1.98;;
26303;SDS011;70693;48.680;8.890;2023-11-21T11:37:26;2.35;;;1.80;;
26303;SDS011;70693;48.680;8.890;2023-11-21T11:39:52;2.45;;;1.73;;
26303;SDS011;70693;48.680;8.890;2023-11-21T11:42:19;2.08;;;1.80;;
26303;SDS011;70693;48.680;8.890;2023-11-21T11:44:49;2.00;;;1.80;;
26303;SDS011;70693;48.680;8.890;2023-11-21T11:47:23;2.25;;;1.80;;
26303;SDS011;70693;48.680;8.890;2023-11-21T11:50:07;1.98;;;1.70;;
26303;SDS011;70693;48.680;8.890;2023-11-21T11:55:17;2.35;;;1.73;;
26303;SDS011;70693;48.680;8.890;2023-11-21T11:57:45;2.08;;;1.88;;
26303;SDS011;70693;48.680;8.890;2023-11-21T12:05:34;1.67;;;1.35;;
26303;SDS011;70693;48.680;8.890;2023-11-21T12:08:03;1.80;;;1.38;;
26303;SDS011;70693;48.680;8.890;2023-11-21T12:10:31;1.83;;;1.35;;
26303;SDS011;70693;48.680;8.890;2023-11-21T12:13:05;1.80;;;1.35;;
26303;SDS011;70693;48.680;8.890;2023-11-21T12:15:33;1.63;;;1.33;;
26303;SDS011;70693;48.680;8.890;2023-11-21T12:18:00;1.30;;;1.08;;
26303;SDS011;70693;48.680;8.890;2023-11-21T12:20:27;1.52;;;1.30;;
26303;SDS011;70693;48.680;8.890;2023-11-21T12:22:54;1.55;;;1.23;;
26303;SDS011;70693;48.680;8.890;2023-11-21T12:25:22;1.20;;;1.10;;
26303;SDS011;70693;48.680;8.890;2023-11-21T12:27:54;1.65;;;1.35;;
26303;SDS011;70693;48.680;8.890;2023-11-21T12:30:23;1.10;;;1.00;;
26303;SDS011;70693;48.680;8.890;2023-11-21T12:33:01;1.33;;;1.08;;
26303;SDS011;70693;48.680;8.890;2023-11-21T12:35:28;2.85;;;1.30;;
26303;SDS011;70693;48.680;8.890;2023-11-21T12:37:55;1.63;;;1.23;;
26303;SDS011;70693;48.680;8.890;2023-11-21T12:40:24;1.75;;;1.30;;
26303;SDS011;70693;48.680;8.890;2023-11-21T12:42:54;1.48;;;1.10;;
26303;SDS011;70693;48.680;8.890;2023-11-21T12:45:24;1.38;;;1.13;;
26303;SDS011;70693;48.680;8.890;2023-11-21T12:48:13;1.40;;;1.20;;
26303;SDS011;70693;48.680;8.890;2023-11-21T12:50:38;1.05;;;0.95;;
26303;SDS011;70693;48.680;8.890;2023-11-21T12:53:05;1.30;;;1.20;;
26303;SDS011;70693;48.680;8.890;2023-11-21T12:55:35;1.42;;;1.10;;
26303;SDS011;70693;48.680;8.890;2023-11-21T12:58:05;1.10;;;1.00;;
26303;SDS011;70693;48.680;8.890;2023-11-21T13:00:42;1.10;;;0.93;;
26303;SDS011;70693;48.680;8.890;2023-11-21T13:03:10;1.00;;;0.88;;
26303;SDS011;70693;48.680;8.890;2023-11-21T13:05:45;1.20;;;1.10;;
26303;SDS011;70693;48.680;8.890;2023-11-21T13:08:12;1.52;;;1.20;;
26303;SDS011;70693;48.680;8.890;2023-11-21T13:10:39;1.67;;;1.23;;
26303;SDS011;70693;48.680;8.890;2023-11-21T13:13:08;1.05;;;0.77;;
26303;SDS011;70693;48.680;8.890;2023-11-21T13:15:38;1.13;;;1.00;;
26303;SDS011;70693;48.680;8.890;2023-11-21T13:18:06;1.10;;;1.00;;
26303;SDS011;70693;48.680;8.890;2023-11-21T13:20:32;1.10;;;1.00;;
26303;SDS011;70693;48.680;8.890;2023-11-21T13:22:58;1.00;;;0.88;;
26303;SDS011;70693;48.680;8.890;2023-11-21T13:25:26;1.50;;;1.27;;
26303;SDS011;70693;48.680;8.890;2023-11-21T13:27:56;1.10;;;1.00;;
26303;SDS011;70693;48.680;8.890;2023-11-21T13:30:26;1.20;;;0.93;;
26303;SDS011;70693;48.680;8.890;2023-11-21T13:32:58;0.80;;;0.80;;
26303;SDS011;70693;48.680;8.890;2023-11-21T13:35:30;1.30;;;1.15;;
26303;SDS011;70693;48.680;8.890;2023-11-21T13:38:03;1.50;;;1.08;;
26303;SDS011;70693;48.680;8.890;2023-11-21T13:40:31;1.20;;;1.08;;
26303;SDS011;70693;48.680;8.890;2023-11-21T13:42:59;1.27;;;1.00;;
26303;SDS011;70693;48.680;8.890;2023-11-21T13:45:29;1.30;;;0.95;;
26303;SDS011;70693;48.680;8.890;2023-11-21T13:47:56;1.20;;;0.80;;
26303;SDS011;70693;48.680;8.890;2023-11-21T13:50:25;1.58;;;1.00;;
26303;SDS011;70693;48.680;8.890;2023-11-21T13:52:58;1.48;;;0.88;;
26303;SDS011;70693;48.680;8.890;2023-11-21T13:55:28;0.73;;;0.70;;
26303;SDS011;70693;48.680;8.890;2023-11-21T13:57:53;1.02;;;0.80;;
26303;SDS011;70693;48.680;8.890;2023-11-21T14:00:19;0.85;;;0.82;;
26303;SDS011;70693;48.680;8.890;2023-11-21T14:03:08;1.17;;;0.85;;
26303;SDS011;70693;48.680;8.890;2023-11-21T14:05:42;1.00;;;0.90;;
26303;SDS011;70693;48.680;8.890;2023-11-21T14:08:09;0.95;;;0.80;;
26303;SDS011;70693;48.680;8.890;2023-11-21T14:10:37;1.10;;;0.80;;
26303;SDS011;70693;48.680;8.890;2023-11-21T14:13:08;1.02;;;0.90;;
26303;SDS011;70693;48.680;8.890;2023-11-21T14:15:40;0.80;;;0.80;;
26303;SDS011;70693;48.680;8.890;2023-11-21T14:18:08;0.70;;;0.63;;
26303;SDS011;70693;48.680;8.890;2023-11-21T14:20:39;1.25;;;0.80;;
26303;SDS011;70693;48.680;8.890;2023-11-21T14:23:06;0.80;;;0.70;;
26303;SDS011;70693;48.680;8.890;2023-11-21T14:25:32;0.75;;;0.60;;
26303;SDS011;70693;48.680;8.890;2023-11-21T14:28:04;0.75;;;0.70;;
26303;SDS011;70693;48.680;8.890;2023-11-21T14:30:31;0.77;;;0.70;;
26303;SDS011;70693;48.680;8.890;2023-11-21T14:32:59;1.00;;;0.80;;
26303;SDS011;70693;48.680;8.890;2023-11-21T14:35:25;1.13;;;0.82;;
26303;SDS011;70693;48.680;8.890;2023-11-21T14:37:51;0.95;;;0.80;;
26303;SDS011;70693;48.680;8.890;2023-11-21T14:40:17;1.00;;;0.80;;
26303;SDS011;70693;48.680;8.890;2023-11-21T14:42:47;1.30;;;0.77;;
26303;SDS011;70693;48.680;8.890;2023-11-21T14:45:13;1.15;;;0.82;;
26303;SDS011;70693;48.680;8.890;2023-11-21T14:47:44;0.77;;;0.60;;
26303;SDS011;70693;48.680;8.890;2023-11-21T14:50:16;0.45;;;0.45;;
26303;SDS011;70693;48.680;8.890;2023-11-21T14:53:00;0.80;;;0.70;;
26303;SDS011;70693;48.680;8.890;2023-11-21T14:55:30;0.70;;;0.50;;
26303;SDS011;70693;48.680;8.890;2023-11-21T14:57:55;0.98;;;0.80;;